Time;durP1;ratioP1;P1;durP2;ratioP2;P2;SDS_P1;SDS_P2;PMS_P1;PMS_P2;Temp;Humidity;BMP_temperature;BMP_pressure;BME280_temperature;BME280_humidity;BME280_pressure;Samples;Min_cycle;Max_cycle;Signal;HPM_P1;HPM_P2
2022/07/09 00:01:15;;;;;;;;;;;16.60;99.90;;;;;;5056805;28;19924;-71
2022/07/09 00:03:41;;;;;;;;;;;16.50;99.90;;;;;;5058696;28;20113;-72
2022/07/09 00:06:08;;;;;;;;;;;16.40;99.90;;;;;;5061717;28;19989;-71
2022/07/09 00:08:35;;;;;;;;;;;16.40;99.90;;;;;;5058948;28;20023;-71
2022/07/09 00:11:01;;;;;;;;;;;16.40;99.90;;;;;;5060720;28;20096;-70
2022/07/09 00:13:28;;;;;;;;;;;16.30;99.90;;;;;;5058305;28;19925;-71
2022/07/09 00:15:55;;;;;;;;;;;16.30;99.90;;;;;;5060736;28;19959;-71
2022/07/09 00:18:23;;;;;;;;;;;16.30;99.90;;;;;;5060755;28;20062;-71
2022/07/09 00:20:49;;;;;;;;;;;16.30;99.90;;;;;;5058003;28;19933;-71
2022/07/09 00:23:16;;;;;;;;;;;16.30;99.90;;;;;;5058014;28;20379;-71
2022/07/09 00:25:43;;;;;;;;;;;16.30;99.90;;;;;;5060390;28;20042;-71
2022/07/09 00:28:10;;;;;;;;;;;16.30;99.90;;;;;;5060494;28;19968;-71
2022/07/09 00:30:36;;;;;;;;;;;16.30;99.90;;;;;;5062160;28;19935;-71
2022/07/09 00:33:03;;;;;;;;;;;16.30;99.90;;;;;;5056921;28;20024;-72
2022/07/09 00:35:31;;;;;;;;;;;16.20;99.90;;;;;;5058804;28;20039;-71
2022/07/09 00:37:58;;;;;;;;;;;16.20;99.90;;;;;;5059876;28;20019;-71
2022/07/09 00:40:25;;;;;;;;;;;16.20;99.90;;;;;;5058380;28;19977;-71
2022/07/09 00:42:51;;;;;;;;;;;16.20;99.90;;;;;;5060776;28;20063;-72
2022/07/09 00:45:18;;;;;;;;;;;16.20;99.90;;;;;;5058469;28;19966;-71
2022/07/09 00:47:45;;;;;;;;;;;16.10;99.90;;;;;;5060050;28;19950;-71
2022/07/09 00:50:11;;;;;;;;;;;16.10;99.90;;;;;;5060941;28;19925;-71
2022/07/09 00:52:40;;;;;;;;;;;16.00;99.90;;;;;;5061367;28;20031;-69
2022/07/09 00:55:07;;;;;;;;;;;16.00;99.90;;;;;;5059319;28;20019;-69
2022/07/09 00:57:34;;;;;;;;;;;16.00;99.90;;;;;;5060888;28;19955;-68
2022/07/09 01:00:01;;;;;;;;;;;15.90;99.90;;;;;;5062793;28;19972;-68
2022/07/09 01:02:28;;;;;;;;;;;15.90;99.90;;;;;;5063453;28;19928;-69
2022/07/09 01:04:55;;;;;;;;;;;15.90;99.90;;;;;;5059055;28;20432;-69
2022/07/09 01:07:21;;;;;;;;;;;15.90;99.90;;;;;;5062205;28;19940;-69
2022/07/09 01:09:49;;;;;;;;;;;16.00;99.90;;;;;;5065586;28;20038;-69
2022/07/09 01:12:16;;;;;;;;;;;16.00;99.90;;;;;;5061848;28;20035;-69
2022/07/09 01:14:43;;;;;;;;;;;16.00;99.90;;;;;;5061609;28;20019;-69
2022/07/09 01:17:09;;;;;;;;;;;16.00;99.90;;;;;;5062176;28;21058;-69
2022/07/09 01:19:36;;;;;;;;;;;16.00;99.90;;;;;;5056896;28;19933;-70
2022/07/09 01:22:05;;;;;;;;;;;16.10;99.90;;;;;;5063864;28;19932;-69
2022/07/09 01:24:31;;;;;;;;;;;16.10;99.90;;;;;;5062862;28;19959;-70
2022/07/09 01:26:58;;;;;;;;;;;16.20;99.90;;;;;;5061585;28;20623;-71
2022/07/09 01:29:25;;;;;;;;;;;16.20;99.90;;;;;;5062026;28;19935;-70
2022/07/09 01:31:51;;;;;;;;;;;16.20;99.90;;;;;;5063950;28;19925;-71
2022/07/09 01:34:18;;;;;;;;;;;16.20;99.90;;;;;;5060599;28;20027;-70
2022/07/09 01:36:45;;;;;;;;;;;16.10;99.90;;;;;;5064316;28;20392;-70
2022/07/09 01:39:13;;;;;;;;;;;16.00;99.90;;;;;;5063018;28;20196;-71
2022/07/09 01:41:40;;;;;;;;;;;16.00;99.90;;;;;;5063135;28;20055;-68
2022/07/09 01:44:07;;;;;;;;;;;15.90;99.90;;;;;;5059403;28;19971;-69
2022/07/09 01:46:34;;;;;;;;;;;15.90;99.90;;;;;;5061299;28;20019;-70
2022/07/09 01:49:00;;;;;;;;;;;15.90;99.90;;;;;;5059194;28;20698;-70
2022/07/09 01:51:27;;;;;;;;;;;15.90;99.90;;;;;;5064758;28;20019;-69
2022/07/09 01:53:54;;;;;;;;;;;15.90;99.90;;;;;;5066015;28;19932;-69
2022/07/09 01:56:22;;;;;;;;;;;15.90;99.90;;;;;;5063532;28;19932;-69
2022/07/09 01:58:48;;;;;;;;;;;15.90;99.90;;;;;;5059528;28;20959;-69
2022/07/09 02:01:15;;;;;;;;;;;15.90;99.90;;;;;;5063153;28;19932;-69
2022/07/09 02:03:42;;;;;;;;;;;15.90;99.90;;;;;;5065872;28;20020;-69
2022/07/09 02:06:08;;;;;;;;;;;15.90;99.90;;;;;;5061939;28;20365;-69
2022/07/09 02:08:36;;;;;;;;;;;15.80;99.90;;;;;;5056855;28;19932;-69
2022/07/09 02:11:03;;;;;;;;;;;15.80;99.90;;;;;;5056318;28;20721;-69
2022/07/09 02:13:31;;;;;;;;;;;15.80;99.90;;;;;;5059879;28;19943;-70
2022/07/09 02:16:00;;;;;;;;;;;15.90;99.90;;;;;;5061515;28;20865;-70
2022/07/09 02:18:26;;;;;;;;;;;15.90;99.90;;;;;;5058130;28;19932;-70
2022/07/09 02:20:55;;;;;;;;;;;15.90;99.90;;;;;;5060929;28;20031;-70
2022/07/09 02:23:22;;;;;;;;;;;15.90;99.90;;;;;;5064280;28;19950;-70
2022/07/09 02:25:49;;;;;;;;;;;15.90;99.90;;;;;;5057715;28;19932;-70
2022/07/09 02:28:15;;;;;;;;;;;15.90;99.90;;;;;;5058670;28;19924;-69
2022/07/09 02:30:43;;;;;;;;;;;15.90;99.90;;;;;;5059411;28;20404;-69
2022/07/09 02:33:10;;;;;;;;;;;15.90;99.90;;;;;;5057386;28;20359;-69
2022/07/09 02:35:37;;;;;;;;;;;15.90;99.90;;;;;;5063238;28;20022;-69
2022/07/09 02:38:03;;;;;;;;;;;15.90;99.90;;;;;;5063760;28;19932;-69
2022/07/09 02:40:30;;;;;;;;;;;16.00;99.90;;;;;;5059045;28;20044;-69
2022/07/09 02:42:57;;;;;;;;;;;16.00;99.90;;;;;;5061189;28;20373;-69
2022/07/09 02:45:23;;;;;;;;;;;16.00;99.90;;;;;;5064398;28;20027;-70
2022/07/09 02:47:51;;;;;;;;;;;16.00;99.90;;;;;;5060831;28;19952;-69
2022/07/09 02:50:18;;;;;;;;;;;16.00;99.90;;;;;;5059936;28;20487;-69
2022/07/09 02:52:45;;;;;;;;;;;16.00;99.90;;;;;;5064303;28;19959;-69
2022/07/09 02:55:11;;;;;;;;;;;16.00;99.90;;;;;;5067253;28;20030;-69
2022/07/09 02:57:38;;;;;;;;;;;16.00;99.90;;;;;;5068607;28;20011;-69
2022/07/09 03:00:06;;;;;;;;;;;16.00;99.90;;;;;;5062793;28;19935;-70
2022/07/09 03:02:32;;;;;;;;;;;16.00;99.90;;;;;;5061146;28;20027;-69
2022/07/09 03:05:00;;;;;;;;;;;16.10;99.90;;;;;;5057168;28;20011;-69
2022/07/09 03:07:27;;;;;;;;;;;16.10;99.90;;;;;;5061876;28;20005;-70
2022/07/09 03:09:54;;;;;;;;;;;16.10;99.90;;;;;;5060835;28;20015;-69
2022/07/09 03:12:21;;;;;;;;;;;16.10;99.90;;;;;;5061360;28;20027;-68
2022/07/09 03:14:47;;;;;;;;;;;16.10;99.90;;;;;;5057585;28;19930;-68
2022/07/09 03:17:14;;;;;;;;;;;16.00;99.90;;;;;;5065713;28;19931;-68
2022/07/09 03:19:41;;;;;;;;;;;16.10;99.90;;;;;;5061181;28;19924;-68
2022/07/09 03:22:09;;;;;;;;;;;16.10;99.90;;;;;;5060027;28;20032;-68
2022/07/09 03:24:37;;;;;;;;;;;16.10;99.90;;;;;;5063976;28;21542;-68
2022/07/09 03:27:04;;;;;;;;;;;16.10;99.90;;;;;;5062615;28;20374;-69
2022/07/09 03:29:30;;;;;;;;;;;16.00;99.90;;;;;;5065059;28;19925;-69
2022/07/09 03:31:57;;;;;;;;;;;16.00;99.90;;;;;;5063439;28;19935;-69
2022/07/09 03:34:24;;;;;;;;;;;16.00;99.90;;;;;;5060776;28;19931;-69
2022/07/09 03:36:50;;;;;;;;;;;16.10;99.90;;;;;;5063518;28;20351;-70
2022/07/09 03:39:18;;;;;;;;;;;16.00;99.90;;;;;;5064821;28;20324;-70
2022/07/09 03:41:45;;;;;;;;;;;16.00;99.90;;;;;;5066104;28;19956;-70
2022/07/09 03:44:12;;;;;;;;;;;16.00;99.90;;;;;;5062184;28;20351;-70
2022/07/09 03:46:39;;;;;;;;;;;16.00;99.90;;;;;;5064349;28;20061;-70
2022/07/09 03:49:05;;;;;;;;;;;16.10;99.90;;;;;;5065412;28;20048;-70
2022/07/09 03:51:32;;;;;;;;;;;16.10;99.90;;;;;;5065135;28;20027;-69
2022/07/09 03:53:59;;;;;;;;;;;16.10;99.90;;;;;;5066762;28;20020;-70
2022/07/09 03:56:27;;;;;;;;;;;16.20;99.90;;;;;;5071062;28;19960;-70
2022/07/09 03:58:53;;;;;;;;;;;16.20;99.90;;;;;;5067486;28;20055;-70
2022/07/09 04:01:20;;;;;;;;;;;16.30;99.90;;;;;;5063366;28;19924;-70
2022/07/09 04:03:47;;;;;;;;;;;16.20;99.90;;;;;;5066765;28;20019;-69
2022/07/09 04:06:13;;;;;;;;;;;16.30;99.90;;;;;;5066309;28;19932;-69
2022/07/09 04:08:40;;;;;;;;;;;16.20;99.90;;;;;;5065041;28;21047;-68
2022/07/09 04:11:07;;;;;;;;;;;16.30;99.90;;;;;;5066780;28;19925;-70
2022/07/09 04:13:35;;;;;;;;;;;16.30;99.90;;;;;;5065350;28;19932;-69
2022/07/09 04:16:01;;;;;;;;;;;16.30;99.90;;;;;;5066649;28;19939;-69
2022/07/09 04:18:28;;;;;;;;;;;16.40;99.90;;;;;;5063863;28;19929;-69
2022/07/09 04:20:56;;;;;;;;;;;16.30;99.90;;;;;;5067318;28;19967;-69
2022/07/09 04:23:23;;;;;;;;;;;16.30;99.90;;;;;;5061694;28;19933;-69
2022/07/09 04:25:50;;;;;;;;;;;16.30;99.90;;;;;;5064621;28;20020;-69
2022/07/09 04:28:17;;;;;;;;;;;16.20;99.90;;;;;;5067398;28;19929;-69
2022/07/09 04:30:46;;;;;;;;;;;16.20;99.90;;;;;;5069364;28;19950;-68
2022/07/09 04:33:12;;;;;;;;;;;16.20;99.90;;;;;;5062053;28;19960;-69
2022/07/09 04:35:39;;;;;;;;;;;16.20;99.90;;;;;;5064195;28;19928;-69
2022/07/09 04:38:06;;;;;;;;;;;16.30;99.90;;;;;;5064293;28;19979;-69
2022/07/09 04:40:32;;;;;;;;;;;16.40;99.90;;;;;;5061886;28;20015;-69
2022/07/09 04:42:59;;;;;;;;;;;16.40;99.90;;;;;;5066917;28;19964;-69
2022/07/09 04:45:26;;;;;;;;;;;16.50;99.90;;;;;;5066112;28;20640;-69
2022/07/09 04:47:54;;;;;;;;;;;16.60;99.90;;;;;;5063316;28;20007;-68
2022/07/09 04:50:20;;;;;;;;;;;16.70;99.90;;;;;;5058957;28;19964;-68
2022/07/09 04:52:47;;;;;;;;;;;16.80;99.90;;;;;;5061047;28;20381;-68
2022/07/09 04:55:15;;;;;;;;;;;16.90;99.90;;;;;;5062773;28;19985;-68
2022/07/09 04:57:41;;;;;;;;;;;17.00;99.90;;;;;;5068767;28;20001;-69
2022/07/09 05:00:09;;;;;;;;;;;17.10;99.90;;;;;;5063930;28;19967;-68
2022/07/09 05:02:36;;;;;;;;;;;17.10;99.90;;;;;;5062701;28;19929;-69
2022/07/09 05:05:06;;;;;;;;;;;17.20;99.90;;;;;;5064927;28;20015;-68
2022/07/09 05:07:33;;;;;;;;;;;17.30;99.90;;;;;;5066160;28;20338;-68
2022/07/09 05:10:00;;;;;;;;;;;17.30;99.90;;;;;;5058271;28;19960;-68
2022/07/09 05:12:26;;;;;;;;;;;17.40;99.90;;;;;;5059656;28;20023;-69
2022/07/09 05:14:54;;;;;;;;;;;17.40;99.90;;;;;;5064699;28;19952;-69
2022/07/09 05:17:21;;;;;;;;;;;17.50;99.90;;;;;;5063878;28;20023;-69
2022/07/09 05:19:48;;;;;;;;;;;17.70;99.90;;;;;;5058946;28;20050;-69
2022/07/09 05:22:16;;;;;;;;;;;17.80;99.90;;;;;;5063485;28;20020;-69
2022/07/09 05:24:43;;;;;;;;;;;17.90;99.90;;;;;;5062666;28;20034;-68
2022/07/09 05:27:10;;;;;;;;;;;17.90;99.90;;;;;;5061107;28;20028;-69
2022/07/09 05:29:36;;;;;;;;;;;18.00;99.90;;;;;;5065290;28;19931;-69
2022/07/09 05:32:04;;;;;;;;;;;18.00;99.90;;;;;;5061966;28;19932;-68
2022/07/09 05:34:30;;;;;;;;;;;18.00;99.90;;;;;;5058240;28;19939;-68
2022/07/09 05:36:57;;;;;;;;;;;18.00;99.90;;;;;;5058633;28;20246;-68
2022/07/09 05:39:26;;;;;;;;;;;18.10;99.90;;;;;;5059049;28;19924;-68
2022/07/09 05:41:52;;;;;;;;;;;18.10;99.90;;;;;;5060751;28;19935;-69
2022/07/09 05:44:19;;;;;;;;;;;18.10;99.90;;;;;;5060116;28;19956;-69
2022/07/09 05:46:46;;;;;;;;;;;18.30;99.90;;;;;;5065387;28;19936;-69
2022/07/09 05:49:13;;;;;;;;;;;18.50;99.90;;;;;;5063007;28;20845;-69
2022/07/09 05:51:40;;;;;;;;;;;18.60;99.90;;;;;;5060544;28;20028;-69
2022/07/09 05:54:07;;;;;;;;;;;18.70;99.90;;;;;;5061547;28;19924;-69
2022/07/09 05:56:36;;;;;;;;;;;18.80;99.90;;;;;;5067499;28;19931;-68
2022/07/09 05:59:03;;;;;;;;;;;18.80;99.90;;;;;;5067862;28;20019;-68
2022/07/09 06:01:30;;;;;;;;;;;18.80;99.90;;;;;;5065089;28;20000;-69
2022/07/09 06:03:56;;;;;;;;;;;18.80;99.90;;;;;;5066787;28;20405;-69
2022/07/09 06:06:23;;;;;;;;;;;19.40;99.90;;;;;;5066117;28;20675;-69
2022/07/09 06:08:50;;;;;;;;;;;20.90;99.90;;;;;;5060214;28;20336;-70
2022/07/09 06:11:17;;;;;;;;;;;22.40;99.90;;;;;;5064515;28;19924;-69
2022/07/09 06:13:45;;;;;;;;;;;23.60;95.70;;;;;;5060880;28;19929;-68
2022/07/09 06:16:11;;;;;;;;;;;23.30;94.30;;;;;;5061942;28;19988;-69
2022/07/09 06:18:38;;;;;;;;;;;23.50;93.80;;;;;;5060372;28;20027;-69
2022/07/09 06:21:05;;;;;;;;;;;23.40;93.10;;;;;;5061603;28;19959;-69
2022/07/09 06:23:32;;;;;;;;;;;23.10;93.00;;;;;;5062363;28;20027;-69
2022/07/09 06:25:58;;;;;;;;;;;23.50;92.50;;;;;;5059761;28;20190;-69
2022/07/09 06:28:25;;;;;;;;;;;24.10;91.10;;;;;;5064392;28;20016;-69
2022/07/09 06:30:53;;;;;;;;;;;24.40;88.80;;;;;;5060461;28;20039;-69
2022/07/09 06:33:20;;;;;;;;;;;25.20;86.20;;;;;;5063048;28;20010;-69
2022/07/09 06:35:46;;;;;;;;;;;25.00;80.80;;;;;;5065694;28;20015;-69
2022/07/09 06:38:13;;;;;;;;;;;24.40;81.60;;;;;;5058249;28;20033;-69
2022/07/09 06:40:40;;;;;;;;;;;24.40;80.50;;;;;;5059884;28;20122;-70
2022/07/09 06:43:08;;;;;;;;;;;24.70;80.70;;;;;;5062034;28;20016;-70
2022/07/09 06:45:35;;;;;;;;;;;24.80;78.90;;;;;;5063137;28;20369;-70
2022/07/09 06:48:03;;;;;;;;;;;24.90;79.60;;;;;;5061428;28;21274;-71
2022/07/09 06:50:30;;;;;;;;;;;25.40;76.80;;;;;;5059426;28;22350;-71
2022/07/09 06:52:56;;;;;;;;;;;25.80;73.80;;;;;;5065399;28;19931;-71
2022/07/09 06:55:23;;;;;;;;;;;26.50;71.20;;;;;;5065181;28;19974;-70
2022/07/09 06:57:50;;;;;;;;;;;26.80;65.80;;;;;;5068379;28;20010;-70
2022/07/09 07:00:17;;;;;;;;;;;26.10;65.70;;;;;;5058661;28;20419;-72
2022/07/09 07:02:43;;;;;;;;;;;25.60;66.00;;;;;;5064206;28;19944;-72
2022/07/09 07:05:12;;;;;;;;;;;25.30;69.00;;;;;;5064865;28;20002;-72
2022/07/09 07:07:38;;;;;;;;;;;25.80;67.30;;;;;;5064903;28;19967;-69
2022/07/09 07:10:05;;;;;;;;;;;27.00;63.60;;;;;;5060283;28;19971;-71
2022/07/09 07:12:32;;;;;;;;;;;28.50;56.90;;;;;;5064207;28;19925;-72
2022/07/09 07:14:59;;;;;;;;;;;29.70;51.50;;;;;;5062547;28;20019;-71
2022/07/09 07:17:25;;;;;;;;;;;28.80;47.80;;;;;;5060605;28;19932;-71
2022/07/09 07:19:52;;;;;;;;;;;26.90;52.00;;;;;;5056151;28;19924;-71
2022/07/09 07:22:23;;;;;;;;;;;25.80;56.50;;;;;;5065351;28;19964;-71
2022/07/09 07:24:50;;;;;;;;;;;25.60;57.50;;;;;;5061106;28;19924;-72
2022/07/09 07:27:17;;;;;;;;;;;24.70;59.20;;;;;;5062007;28;20007;-71
2022/07/09 07:29:44;;;;;;;;;;;24.00;63.30;;;;;;5062078;28;19928;-71
2022/07/09 07:32:10;;;;;;;;;;;23.30;67.30;;;;;;5059651;28;19967;-70
2022/07/09 07:34:37;;;;;;;;;;;22.80;71.10;;;;;;5060568;28;19932;-71
2022/07/09 07:37:04;;;;;;;;;;;22.60;74.20;;;;;;5062661;28;19971;-70
2022/07/09 07:39:32;;;;;;;;;;;22.70;77.60;;;;;;5052699;28;20679;-72
2022/07/09 07:41:59;;;;;;;;;;;23.20;78.00;;;;;;5056844;28;20461;-71
2022/07/09 07:44:29;;;;;;;;;;;25.10;72.10;;;;;;5055394;28;20047;-72
2022/07/09 07:46:57;;;;;;;;;;;26.40;63.60;;;;;;5052045;28;19956;-71
2022/07/09 07:49:23;;;;;;;;;;;26.60;62.40;;;;;;5062030;28;19928;-72
2022/07/09 07:51:50;;;;;;;;;;;27.00;58.20;;;;;;5067891;28;19967;-71
2022/07/09 07:54:17;;;;;;;;;;;28.00;55.10;;;;;;5059959;28;20751;-71
2022/07/09 07:56:49;;;;;;;;;;;27.10;55.10;;;;;;5063075;28;20464;-71
2022/07/09 07:59:16;;;;;;;;;;;25.60;57.30;;;;;;5066772;28;19924;-71
2022/07/09 08:01:43;;;;;;;;;;;24.40;64.20;;;;;;5058683;28;19932;-71
2022/07/09 08:04:19;;;;;;;;;;;25.30;63.50;;;;;;5055731;28;20369;-72
2022/07/09 08:07:10;;;;;;;;;;;26.60;59.30;;;;;;5060226;28;20588;-71
2022/07/09 08:09:40;;;;;;;;;;;27.60;55.60;;;;;;5058227;28;20035;-70
2022/07/09 08:12:10;;;;;;;;;;;28.10;52.60;;;;;;5066413;28;19924;-70
2022/07/09 08:14:45;;;;;;;;;;;28.90;49.00;;;;;;5061574;28;20047;-70
2022/07/09 08:17:17;;;;;;;;;;;29.10;47.70;;;;;;5057903;28;19925;-67
2022/07/09 08:19:51;;;;;;;;;;;28.90;47.10;;;;;;5063070;28;20460;-69
2022/07/09 08:22:28;;;;;;;;;;;29.20;46.30;;;;;;5062228;28;20026;-70
2022/07/09 08:25:08;;;;;;;;;;;29.10;44.80;;;;;;5063216;28;20027;-69
2022/07/09 08:27:36;;;;;;;;;;;29.50;43.70;;;;;;5061102;28;19936;-69
2022/07/09 08:30:03;;;;;;;;;;;29.30;42.60;;;;;;5060643;28;20444;-69
2022/07/09 08:32:30;;;;;;;;;;;28.90;42.90;;;;;;5068258;28;19924;-69
2022/07/09 08:34:57;;;;;;;;;;;28.80;43.00;;;;;;5065550;28;19963;-69
2022/07/09 08:37:23;;;;;;;;;;;29.50;42.70;;;;;;5062677;28;19928;-69
2022/07/09 08:39:52;;;;;;;;;;;29.60;40.70;;;;;;5062928;28;20035;-70
2022/07/09 08:42:19;;;;;;;;;;;29.60;40.10;;;;;;5070837;28;20007;-70
2022/07/09 08:44:47;;;;;;;;;;;29.40;39.80;;;;;;5072178;28;19972;-70
2022/07/09 08:47:15;;;;;;;;;;;29.20;40.20;;;;;;5070242;28;20011;-69
2022/07/09 08:49:52;;;;;;;;;;;29.30;39.80;;;;;;5068572;28;20332;-70
2022/07/09 08:52:24;;;;;;;;;;;29.80;39.30;;;;;;5070291;28;19932;-70
2022/07/09 08:55:00;;;;;;;;;;;30.70;37.80;;;;;;5069158;28;19983;-70
2022/07/09 08:57:31;;;;;;;;;;;30.50;36.50;;;;;;5061808;28;19932;-71
2022/07/09 09:00:04;;;;;;;;;;;29.60;38.20;;;;;;5069783;28;20372;-71
2022/07/09 09:02:36;;;;;;;;;;;29.70;38.50;;;;;;5060117;28;19936;-70
2022/07/09 09:05:07;;;;;;;;;;;29.70;38.00;;;;;;5066689;28;20387;-71
2022/07/09 09:07:34;;;;;;;;;;;28.20;40.60;;;;;;5070990;28;20008;-69
2022/07/09 09:10:00;;;;;;;;;;;27.60;44.30;;;;;;5063292;28;20028;-68
2022/07/09 09:12:28;;;;;;;;;;;28.30;44.10;;;;;;5067067;28;20022;-69
2022/07/09 09:14:55;;;;;;;;;;;28.70;43.80;;;;;;5065673;28;19925;-68
2022/07/09 09:17:24;;;;;;;;;;;29.60;41.70;;;;;;5070204;28;20479;-68
2022/07/09 09:19:50;;;;;;;;;;;28.80;43.50;;;;;;5067356;28;19933;-68
2022/07/09 09:22:17;;;;;;;;;;;27.30;47.00;;;;;;5066438;28;20008;-67
2022/07/09 09:24:45;;;;;;;;;;;26.20;51.60;;;;;;5066804;28;19999;-68
2022/07/09 09:27:14;;;;;;;;;;;26.00;54.20;;;;;;5066358;28;19932;-68
2022/07/09 09:29:49;;;;;;;;;;;26.40;54.10;;;;;;5062984;28;20387;-67
2022/07/09 09:32:19;;;;;;;;;;;25.90;55.00;;;;;;5063520;28;19971;-68
2022/07/09 09:34:51;;;;;;;;;;;25.70;56.70;;;;;;5059641;28;20018;-68
2022/07/09 09:37:25;;;;;;;;;;;25.10;58.80;;;;;;5063319;28;19924;-70
2022/07/09 09:39:52;;;;;;;;;;;24.90;62.30;;;;;;5058854;28;19951;-68
2022/07/09 09:42:19;;;;;;;;;;;25.20;62.20;;;;;;5066107;28;19932;-69
2022/07/09 09:44:49;;;;;;;;;;;25.10;62.90;;;;;;5065910;28;19936;-69
2022/07/09 09:47:19;;;;;;;;;;;24.80;64.20;;;;;;5063872;28;19981;-68
2022/07/09 09:49:47;;;;;;;;;;;25.10;65.30;;;;;;5066570;28;19970;-68
2022/07/09 09:52:16;;;;;;;;;;;25.60;63.90;;;;;;5068040;28;19967;-69
2022/07/09 09:54:45;;;;;;;;;;;24.90;65.40;;;;;;5071099;28;19948;-68
2022/07/09 09:57:13;;;;;;;;;;;24.40;68.20;;;;;;5067864;28;19943;-66
2022/07/09 09:59:42;;;;;;;;;;;24.40;70.40;;;;;;5066324;28;20018;-69
2022/07/09 10:02:10;;;;;;;;;;;24.40;70.70;;;;;;5067947;28;19924;-67
2022/07/09 10:04:36;;;;;;;;;;;24.80;68.00;;;;;;5066377;28;20027;-68
2022/07/09 10:07:04;;;;;;;;;;;26.00;64.50;;;;;;5067625;28;20019;-67
2022/07/09 10:09:32;;;;;;;;;;;26.70;59.70;;;;;;5066403;28;20354;-68
2022/07/09 10:11:59;;;;;;;;;;;26.00;61.80;;;;;;5066061;28;19979;-67
2022/07/09 10:14:32;;;;;;;;;;;25.10;65.00;;;;;;5060390;28;20112;-68
2022/07/09 10:17:10;;;;;;;;;;;24.80;68.10;;;;;;5060638;28;19972;-67
2022/07/09 10:19:37;;;;;;;;;;;24.80;67.20;;;;;;5059234;28;19929;-69
2022/07/09 10:22:04;;;;;;;;;;;24.60;67.50;;;;;;5063178;28;20002;-69
2022/07/09 10:24:33;;;;;;;;;;;24.60;67.90;;;;;;5058631;28;20312;-68
2022/07/09 10:27:06;;;;;;;;;;;24.80;69.00;;;;;;5064186;28;19980;-69
2022/07/09 10:29:34;;;;;;;;;;;23.90;71.90;;;;;;5061371;28;19932;-69
2022/07/09 10:32:02;;;;;;;;;;;23.70;71.30;;;;;;5064111;28;19938;-68
2022/07/09 10:34:36;;;;;;;;;;;23.70;70.70;;;;;;5063944;28;20031;-68
2022/07/09 10:37:04;;;;;;;;;;;24.00;69.40;;;;;;5063834;28;19929;-69
2022/07/09 10:39:32;;;;;;;;;;;24.60;67.80;;;;;;5060912;28;19932;-70
2022/07/09 10:42:00;;;;;;;;;;;24.80;62.90;;;;;;5063493;28;19925;-70
2022/07/09 10:44:27;;;;;;;;;;;24.60;60.80;;;;;;5064789;28;19939;-70
2022/07/09 10:46:56;;;;;;;;;;;24.40;60.80;;;;;;5060797;28;19967;-70
2022/07/09 10:49:23;;;;;;;;;;;24.40;62.20;;;;;;5064602;28;20183;-69
2022/07/09 10:51:50;;;;;;;;;;;24.40;61.50;;;;;;5068843;28;19925;-71
2022/07/09 10:54:17;;;;;;;;;;;23.80;63.50;;;;;;5066543;28;19939;-69
2022/07/09 10:56:45;;;;;;;;;;;24.00;62.40;;;;;;5059631;28;19939;-69
2022/07/09 10:59:16;;;;;;;;;;;24.40;62.60;;;;;;5063207;28;19963;-69
2022/07/09 11:01:43;;;;;;;;;;;24.20;64.20;;;;;;5066393;28;20331;-70
2022/07/09 11:04:11;;;;;;;;;;;24.50;62.40;;;;;;5062358;28;20035;-69
2022/07/09 11:06:45;;;;;;;;;;;23.70;65.10;;;;;;5063217;28;19924;-67
2022/07/09 11:09:14;;;;;;;;;;;23.10;69.70;;;;;;5062391;28;20430;-67
2022/07/09 11:11:42;;;;;;;;;;;23.20;69.20;;;;;;5068515;28;19932;-67
2022/07/09 11:14:10;;;;;;;;;;;22.80;70.10;;;;;;5067114;28;20007;-68
2022/07/09 11:16:37;;;;;;;;;;;22.90;69.60;;;;;;5062575;28;19964;-67
2022/07/09 11:19:12;;;;;;;;;;;22.80;70.40;;;;;;5064223;28;22267;-67
2022/07/09 11:21:39;;;;;;;;;;;23.30;69.60;;;;;;5057653;28;19968;-67
2022/07/09 11:24:13;;;;;;;;;;;23.90;66.70;;;;;;5056105;28;20002;-68
2022/07/09 11:26:39;;;;;;;;;;;23.70;66.10;;;;;;5055405;28;19932;-68
2022/07/09 11:29:07;;;;;;;;;;;22.80;66.60;;;;;;5061395;28;20385;-67
2022/07/09 11:31:35;;;;;;;;;;;23.40;67.40;;;;;;5057304;28;19933;-67
2022/07/09 11:34:14;;;;;;;;;;;23.90;64.50;;;;;;5056346;28;19956;-67
2022/07/09 11:36:42;;;;;;;;;;;24.00;62.60;;;;;;5062388;28;19958;-67
2022/07/09 11:39:09;;;;;;;;;;;24.40;62.90;;;;;;5059616;28;19932;-67
2022/07/09 11:41:42;;;;;;;;;;;24.80;61.80;;;;;;5061710;28;19963;-67
2022/07/09 11:44:09;;;;;;;;;;;24.60;60.90;;;;;;5061545;28;19939;-68
2022/07/09 11:46:38;;;;;;;;;;;24.50;61.00;;;;;;5056142;28;20384;-68
2022/07/09 11:49:14;;;;;;;;;;;24.40;61.50;;;;;;5059494;28;19924;-67
2022/07/09 11:51:41;;;;;;;;;;;24.30;62.40;;;;;;5057268;28;19947;-67
2022/07/09 11:54:08;;;;;;;;;;;23.80;64.30;;;;;;5058834;28;19947;-68
2022/07/09 11:56:43;;;;;;;;;;;23.70;62.70;;;;;;5061859;28;19997;-68
2022/07/09 11:59:09;;;;;;;;;;;23.60;63.00;;;;;;5062530;28;20052;-68
2022/07/09 12:01:38;;;;;;;;;;;23.60;64.70;;;;;;5063134;28;19940;-68
2022/07/09 12:04:06;;;;;;;;;;;23.50;64.90;;;;;;5063556;28;20010;-68
2022/07/09 12:06:32;;;;;;;;;;;23.70;64.50;;;;;;5061037;28;20342;-68
2022/07/09 12:09:00;;;;;;;;;;;23.60;63.40;;;;;;5062695;28;19925;-68
2022/07/09 12:11:27;;;;;;;;;;;23.70;61.80;;;;;;5062957;28;20392;-68
2022/07/09 12:13:54;;;;;;;;;;;23.70;61.90;;;;;;5061525;28;19989;-69
2022/07/09 12:16:21;;;;;;;;;;;23.80;61.70;;;;;;5061241;28;20028;-67
2022/07/09 12:18:49;;;;;;;;;;;24.10;59.30;;;;;;5060597;28;19997;-68
2022/07/09 12:21:15;;;;;;;;;;;24.10;58.20;;;;;;5066577;28;20021;-68
2022/07/09 12:23:42;;;;;;;;;;;23.90;58.40;;;;;;5059367;28;20433;-68
2022/07/09 12:26:09;;;;;;;;;;;23.70;59.50;;;;;;5060818;28;19943;-69
2022/07/09 12:28:36;;;;;;;;;;;23.30;58.90;;;;;;5066504;28;20467;-68
2022/07/09 12:31:02;;;;;;;;;;;23.10;58.40;;;;;;5055820;28;19964;-69
2022/07/09 12:33:29;;;;;;;;;;;23.40;58.40;;;;;;5062095;28;20023;-68
2022/07/09 12:35:57;;;;;;;;;;;23.70;57.70;;;;;;5057135;28;20170;-69
2022/07/09 12:38:24;;;;;;;;;;;23.90;57.10;;;;;;5060456;28;20382;-69
2022/07/09 12:40:51;;;;;;;;;;;24.00;56.00;;;;;;5056291;28;19925;-69
2022/07/09 12:43:18;;;;;;;;;;;23.60;56.90;;;;;;5068677;28;19924;-69
2022/07/09 12:45:44;;;;;;;;;;;23.90;55.50;;;;;;5059869;28;20016;-68
2022/07/09 12:48:11;;;;;;;;;;;23.70;56.00;;;;;;5064651;28;19925;-68
2022/07/09 12:50:38;;;;;;;;;;;23.10;57.40;;;;;;5066125;28;20027;-69
2022/07/09 12:53:06;;;;;;;;;;;22.60;57.80;;;;;;5060757;28;19924;-68
2022/07/09 12:55:32;;;;;;;;;;;22.40;59.60;;;;;;5064831;28;19929;-68
2022/07/09 12:57:59;;;;;;;;;;;22.50;59.90;;;;;;5058192;28;19924;-67
2022/07/09 13:00:26;;;;;;;;;;;22.70;59.70;;;;;;5061824;28;20022;-68
2022/07/09 13:02:53;;;;;;;;;;;23.00;59.50;;;;;;5060047;28;19974;-68
2022/07/09 13:05:19;;;;;;;;;;;23.10;56.70;;;;;;5057907;28;19972;-68
2022/07/09 13:07:46;;;;;;;;;;;23.30;57.30;;;;;;5059439;28;20458;-68
2022/07/09 13:10:14;;;;;;;;;;;23.40;56.30;;;;;;5056318;28;19963;-68
2022/07/09 13:12:44;;;;;;;;;;;23.20;57.10;;;;;;5066716;28;20370;-69
2022/07/09 13:15:11;;;;;;;;;;;23.30;56.40;;;;;;5065499;28;20027;-68
2022/07/09 13:17:37;;;;;;;;;;;23.40;55.90;;;;;;5068914;28;19963;-70
2022/07/09 13:20:05;;;;;;;;;;;23.10;55.10;;;;;;5068359;28;20018;-67
2022/07/09 13:22:31;;;;;;;;;;;23.00;55.60;;;;;;5070690;28;19971;-69
2022/07/09 13:24:58;;;;;;;;;;;23.10;55.40;;;;;;5069690;28;20375;-68
2022/07/09 13:27:26;;;;;;;;;;;23.40;53.50;;;;;;5071905;28;19925;-68
2022/07/09 13:29:53;;;;;;;;;;;23.60;54.10;;;;;;5069689;28;20023;-69
2022/07/09 13:32:19;;;;;;;;;;;23.80;52.40;;;;;;5071383;28;20376;-68
2022/07/09 13:34:47;;;;;;;;;;;23.10;53.40;;;;;;5070380;28;20053;-67
2022/07/09 13:37:14;;;;;;;;;;;22.90;52.80;;;;;;5068673;28;19935;-68
2022/07/09 13:39:40;;;;;;;;;;;23.00;52.90;;;;;;5066046;28;19979;-68
2022/07/09 13:42:07;;;;;;;;;;;23.60;52.50;;;;;;5064393;28;19929;-69
2022/07/09 13:44:35;;;;;;;;;;;23.50;50.20;;;;;;5067333;28;19964;-68
2022/07/09 13:47:02;;;;;;;;;;;23.30;51.20;;;;;;5066826;28;20380;-68
2022/07/09 13:49:29;;;;;;;;;;;23.70;51.10;;;;;;5067002;28;19977;-69
2022/07/09 13:51:57;;;;;;;;;;;23.80;50.00;;;;;;5068971;28;20019;-68
2022/07/09 13:54:23;;;;;;;;;;;23.70;50.10;;;;;;5068735;28;19935;-68
2022/07/09 13:56:50;;;;;;;;;;;23.00;51.30;;;;;;5067296;28;19964;-68
2022/07/09 13:59:17;;;;;;;;;;;22.90;52.00;;;;;;5069380;28;20059;-67
2022/07/09 14:01:45;;;;;;;;;;;23.20;51.40;;;;;;5069336;28;20318;-68
2022/07/09 14:04:12;;;;;;;;;;;23.40;50.40;;;;;;5060278;28;19931;-67
2022/07/09 14:06:39;;;;;;;;;;;23.60;49.00;;;;;;5066345;28;20345;-67
2022/07/09 14:09:06;;;;;;;;;;;23.60;47.80;;;;;;5071177;28;19928;-68
2022/07/09 14:11:32;;;;;;;;;;;23.50;48.10;;;;;;5070707;28;20055;-67
2022/07/09 14:14:00;;;;;;;;;;;23.30;49.00;;;;;;5066971;28;19960;-67
2022/07/09 14:16:27;;;;;;;;;;;23.30;47.40;;;;;;5067360;28;20000;-69
2022/07/09 14:18:55;;;;;;;;;;;23.30;46.40;;;;;;5068047;28;20020;-68